Impacts TAF Board
For situational awareness. Not to be used for flight planning purposes.
IDs:

KMSY - New Orleans/Armstron, LA, US

Issued at 0520 UTC 21 Oct 2018
Updated at 0839 UTC 21 Oct 2018
Potential Impact None Slight Moderate High
Time0753Z 21/09Z 21/10Z 21/11Z 21/12Z 21/13Z 21/14Z 21/15Z 21/16Z 21/17Z 21/18Z 21/19Z 21/20Z 21/21Z>>
Type OBS PRVL PRVL PRVL PRVL PRVL PRVL PRVL PRVL PRVL PRVL PRVL PRVL PRVL
VIS 10 >6 >6 >6 >6 >6 >6 >6 >6 >6 >6 >6 >6 >6
CIG 60 90 90 90 90 -- -- -- -- -- -- -- -- --
Cover OVC OVC OVC OVC OVC SCT SCT SCT SCT SCT SCT SCT FEW FEW
FltCat VFR VFR VFR VFR VFR VFR VFR VFR VFR VFR VFR VFR VFR VFR
WX -- -- -- -- -- -- -- -- -- -- -- -- -- --
WDir 30 30 30 30 30 50 50 50 50 50 50 50 30 30
WSpd 17 14 14 14 14 14 14 14 14 14 14 14 10 10
WGst 25 25 25 25 25 25 25 25 25 25 25 25 -- --
Raw TAF
KMSY 210520Z 2106/2212 03014G25KT P6SM OVC090
  FM211300 05014G25KT P6SM SCT100
  FM212000 03010KT P6SM FEW250
  FM220500 06010G21KT P6SM FEW200


Raw METAR
KMSY 210753Z 03017G25KT 10SM SCT022 OVC060 19/13 A3014 RMK AO2 PK WND 05026/0733 SLP209 T01940133
KMSY 210653Z 03016G23KT 10SM FEW022 OVC060 20/15 A3014 RMK AO2 SLP209 T02000150
KMSY 210553Z 01011G19KT 10SM FEW019 OVC070 21/17 A3013 RMK AO2 SLP207 60007 T02060172 10256 20206 403060206 51010

METAR Board
Radar Display
Forecast Discussion
For situational awareness. Not to be used for flight planning purposes.